Time;durP1;ratioP1;P1;durP2;ratioP2;P2;SDS_P1;SDS_P2;PMS_P1;PMS_P2;Temp;Humidity;BMP_temperature;BMP_pressure;BME280_temperature;BME280_humidity;BME280_pressure;Samples;Min_cycle;Max_cycle;Signal;HPM_P1;HPM_P2
2020/12/08 00:00:57;;;;;;;14.27;6.93;;;;;;;5.65;74.15;101807.38;6210227;28;20341;-78
2020/12/08 00:04:14;;;;;;;12.33;6.77;;;;;;;5.78;73.50;101815.91;6220060;28;20211;-77
2020/12/08 00:07:18;;;;;;;23.10;6.80;;;;;;;5.79;73.51;101809.47;6218854;28;20200;-77
2020/12/08 00:10:21;;;;;;;13.00;6.87;;;;;;;5.81;73.60;101791.19;6217174;28;20553;-79
2020/12/08 00:13:25;;;;;;;10.37;6.60;;;;;;;5.68;73.99;101790.81;6217369;28;20579;-79
2020/12/08 00:16:29;;;;;;;12.83;7.23;;;;;;;5.47;74.97;101793.09;6203880;28;20224;-78
2020/12/08 00:19:33;;;;;;;15.17;6.53;;;;;;;5.90;73.26;101795.69;6217363;28;20605;-78
2020/12/08 00:22:38;;;;;;;13.13;7.10;;;;;;;5.80;73.83;101800.34;6219047;28;20185;-78
2020/12/08 00:25:41;;;;;;;9.17;6.37;;;;;;;5.77;73.42;101773.59;6218522;28;20241;-79
2020/12/08 00:28:45;;;;;;;12.90;6.67;;;;;;;5.62;74.02;101807.72;6205704;28;20547;-81
2020/12/08 00:31:48;;;;;;;11.23;7.00;;;;;;;5.72;74.30;101789.47;6196565;28;20259;-79
2020/12/08 00:34:53;;;;;;;15.03;7.03;;;;;;;5.58;74.98;101790.09;6218822;28;20204;-80
2020/12/08 00:37:56;;;;;;;11.57;6.47;;;;;;;5.65;74.03;101769.47;6219570;28;20704;-78
2020/12/08 00:41:00;;;;;;;12.20;7.20;;;;;;;5.63;74.52;101803.97;6218363;28;20246;-80
2020/12/08 00:44:03;;;;;;;12.67;7.00;;;;;;;5.70;74.33;101788.78;6201781;28;20199;-78
2020/12/08 00:47:10;;;;;;;17.33;7.60;;;;;;;5.61;74.78;101796.03;6219621;28;20747;-79
2020/12/08 00:50:14;;;;;;;9.93;7.07;;;;;;;5.86;73.71;101794.31;6212192;28;20224;-78
2020/12/08 00:53:19;;;;;;;17.60;7.20;;;;;;;5.64;74.18;101784.03;6215073;28;20189;-79
2020/12/08 00:56:22;;;;;;;14.13;7.23;;;;;;;5.66;74.35;101798.25;6200048;28;20615;-79
2020/12/08 00:59:29;;;;;;;12.90;6.87;;;;;;;5.72;74.43;101791.34;6201064;28;20225;-78
2020/12/08 01:02:32;;;;;;;8.93;6.33;;;;;;;5.64;74.34;101778.63;6201392;28;20257;-78
2020/12/08 01:05:36;;;;;;;17.20;7.13;;;;;;;5.69;74.44;101784.38;6215277;28;20293;-78
2020/12/08 01:08:42;;;;;;;19.40;7.37;;;;;;;5.78;73.91;101786.09;6199434;28;20353;-76
2020/12/08 01:11:46;;;;;;;12.53;7.13;;;;;;;5.61;74.93;101784.34;6204024;28;20208;-77
2020/12/08 01:14:57;;;;;;;18.10;7.90;;;;;;;5.69;74.82;101787.09;6196636;28;20616;-80
2020/12/08 01:18:03;;;;;;;12.83;7.00;;;;;;;5.65;74.82;101785.72;6205675;28;20326;-77
2020/12/08 01:21:10;;;;;;;13.33;7.20;;;;;;;5.75;73.86;101770.22;6204678;28;20205;-79
2020/12/08 01:24:13;;;;;;;15.00;7.30;;;;;;;5.76;74.21;101779.16;6199069;28;20532;-78
2020/12/08 01:27:20;;;;;;;13.57;7.53;;;;;;;5.64;75.20;101778.63;6216332;28;20659;-78
2020/12/08 01:30:23;;;;;;;18.23;8.50;;;;;;;5.40;74.80;101737.88;6216976;28;20258;-79
2020/12/08 01:33:30;;;;;;;12.67;7.33;;;;;;;5.55;75.13;101757.91;6217795;28;20612;-78
2020/12/08 01:36:35;;;;;;;21.30;7.80;;;;;;;5.55;75.27;101768.75;6191693;28;20212;-79
2020/12/08 01:39:39;;;;;;;14.27;7.70;;;;;;;5.45;75.99;101773.44;6199999;28;20208;-79
2020/12/08 01:42:43;;;;;;;18.73;7.53;;;;;;;5.51;75.70;101773.66;6199725;28;20210;-78
2020/12/08 01:45:47;;;;;;;16.07;7.83;;;;;;;5.58;75.08;101768.41;6215464;28;20199;-77
2020/12/08 01:48:51;;;;;;;12.13;7.73;;;;;;;5.69;74.88;101777.13;6213994;28;20228;-80
2020/12/08 01:51:58;;;;;;;12.53;8.07;;;;;;;5.45;76.22;101795.94;6197049;28;20209;-76
2020/12/08 01:55:03;;;;;;;15.80;7.97;;;;;;;5.36;75.40;101744.63;6196328;28;20197;-78
2020/12/08 01:58:14;;;;;;;13.47;7.77;;;;;;;5.55;75.35;101768.75;6203195;28;20785;-82
2020/12/08 02:01:19;;;;;;;16.70;8.07;;;;;;;5.52;75.75;101769.09;6212639;28;20282;-79
2020/12/08 02:04:23;;;;;;;23.73;8.93;;;;;;;5.54;75.27;101767.91;6202763;28;20346;-78
2020/12/08 02:07:27;;;;;;;17.67;7.50;;;;;;;5.46;76.36;101780.56;6219195;28;20670;-79
2020/12/08 02:10:30;;;;;;;17.10;7.93;;;;;;;5.39;76.28;101790.34;6203625;28;20528;-79
2020/12/08 02:13:37;;;;;;;12.93;7.70;;;;;;;5.37;76.71;101797.75;6219288;28;20200;-77
2020/12/08 02:16:41;;;;;;;11.60;7.83;;;;;;;5.21;77.05;101784.97;6201217;28;20341;-77
2020/12/08 02:19:46;;;;;;;11.10;7.80;;;;;;;5.35;76.80;101797.06;6216251;28;20196;-79
2020/12/08 02:22:54;;;;;;;15.20;8.33;;;;;;;5.34;76.17;101804.31;6211011;28;20260;-78
2020/12/08 02:25:59;;;;;;;16.23;7.83;;;;;;;5.35;76.45;101795.19;6202871;28;20252;-78
2020/12/08 02:29:06;;;;;;;13.00;7.77;;;;;;;5.32;76.63;101805.47;6203889;28;20686;-81
2020/12/08 02:32:15;;;;;;;18.33;7.53;;;;;;;5.19;75.85;101772.63;6206209;28;20295;-78
2020/12/08 02:35:19;;;;;;;19.20;9.00;;;;;;;5.36;76.51;101804.19;6211701;28;20204;-78
2020/12/08 02:38:23;;;;;;;18.03;8.33;;;;;;;5.34;76.58;101803.50;6212703;28;20292;-79
2020/12/08 02:41:28;;;;;;;14.90;8.23;;;;;;;5.31;77.30;101820.03;6207308;28;20216;-77
2020/12/08 02:44:32;;;;;;;13.03;8.80;;;;;;;5.29;76.83;101805.84;6220123;28;20279;-76
2020/12/08 02:47:35;;;;;;;14.67;7.97;;;;;;;5.08;77.86;101809.72;6219388;28;20333;-79
2020/12/08 02:50:39;;;;;;;20.10;9.23;;;;;;;5.15;77.15;101801.84;6195256;28;20226;-79
2020/12/08 02:53:45;;;;;;;15.57;7.93;;;;;;;5.13;77.59;101806.56;6219219;28;20204;-79
2020/12/08 02:56:49;;;;;;;12.13;8.17;;;;;;;5.06;78.32;101811.75;6219847;28;20389;-77
2020/12/08 03:00:03;;;;;;;20.90;8.37;;;;;;;5.17;77.54;101815.19;6217621;28;20573;-77
2020/12/08 03:03:14;;;;;;;17.63;8.33;;;;;;;5.07;78.10;101818.88;6207583;28;20201;-77
2020/12/08 03:06:19;;;;;;;12.70;7.63;;;;;;;5.17;77.98;101816.06;6203175;28;20266;-77
2020/12/08 03:09:27;;;;;;;17.30;8.53;;;;;;;5.26;77.85;101812.41;6204420;28;20213;-78
2020/12/08 03:12:32;;;;;;;20.07;8.50;;;;;;;5.17;78.36;101812.50;6210592;28;20216;-77
2020/12/08 03:15:37;;;;;;;18.37;8.47;;;;;;;5.29;77.46;101811.25;6199204;28;20195;-78
2020/12/08 03:18:42;;;;;;;16.13;8.77;;;;;;;5.18;77.97;101806.09;6202730;28;20709;-78
2020/12/08 03:21:46;;;;;;;13.90;8.33;;;;;;;4.98;79.55;101808.16;6205840;28;20350;-79
2020/12/08 03:25:03;;;;;;;14.00;8.53;;;;;;;5.20;78.58;101801.34;6206833;28;20487;-79
2020/12/08 03:28:10;;;;;;;13.30;8.87;;;;;;;5.33;77.92;101799.06;6211948;28;20238;-78
2020/12/08 03:31:17;;;;;;;16.40;8.63;;;;;;;5.17;78.28;101769.19;6202169;28;20302;-80
2020/12/08 03:34:20;;;;;;;14.20;8.83;;;;;;;5.21;78.54;101797.66;6218409;28;20187;-79
2020/12/08 03:37:25;;;;;;;15.40;8.87;;;;;;;5.18;78.88;101797.97;6201452;28;20227;-78
2020/12/08 03:40:34;;;;;;;15.20;8.40;;;;;;;5.27;78.48;101792.44;6219099;28;20293;-78
2020/12/08 03:43:43;;;;;;;17.87;8.53;;;;;;;4.88;78.64;101748.72;6218242;28;20211;-79
2020/12/08 03:46:46;;;;;;;13.90;9.10;;;;;;;5.34;78.34;101811.63;6201118;28;20219;-79
2020/12/08 03:49:50;;;;;;;13.20;9.27;;;;;;;5.26;78.31;101796.19;6217438;28;20647;-76
2020/12/08 03:52:56;;;;;;;14.00;8.33;;;;;;;5.23;78.86;101793.78;6219056;28;20253;-78
2020/12/08 03:56:08;;;;;;;14.73;8.93;;;;;;;5.34;78.33;101814.31;6216752;28;20291;-77
2020/12/08 03:59:17;;;;;;;19.23;9.17;;;;;;;5.22;78.12;101774.97;6213265;28;20205;-77
2020/12/08 04:02:25;;;;;;;14.37;8.47;;;;;;;5.37;77.78;101792.31;6203409;28;20636;-77
2020/12/08 04:05:29;;;;;;;14.70;9.03;;;;;;;5.10;78.56;101762.75;6198318;28;20219;-78
2020/12/08 04:08:32;;;;;;;18.40;9.37;;;;;;;5.33;78.89;101812.59;6199053;28;20703;-78
2020/12/08 04:11:37;;;;;;;14.87;9.00;;;;;;;5.46;78.34;101815.75;6198546;28;20215;-79
2020/12/08 04:14:41;;;;;;;13.53;8.73;;;;;;;5.29;78.14;101819.34;6201432;28;20218;-78
2020/12/08 04:17:45;;;;;;;12.43;8.70;;;;;;;5.35;78.14;101805.16;6197485;28;20685;-82
2020/12/08 04:20:49;;;;;;;15.23;8.40;;;;;;;5.28;78.95;101814.94;6200922;28;20209;-78
2020/12/08 04:23:54;;;;;;;14.63;8.43;;;;;;;5.18;79.17;101816.91;6200197;28;20217;-78
2020/12/08 04:26:59;;;;;;;11.97;8.57;;;;;;;5.21;78.95;101822.84;6200649;28;20239;-80
2020/12/08 04:30:13;;;;;;;15.73;9.10;;;;;;;5.19;79.42;101815.91;6216239;28;20601;-77
2020/12/08 04:33:26;;;;;;;13.83;9.00;;;;;;;5.37;78.32;101822.09;6204651;28;20218;-79
2020/12/08 04:36:29;;;;;;;15.63;8.37;;;;;;;5.39;78.67;101828.22;6201342;28;20258;-78
2020/12/08 04:39:34;;;;;;;16.93;8.83;;;;;;;5.20;78.53;101828.41;6201373;28;20557;-79
2020/12/08 04:42:44;;;;;;;14.37;8.20;;;;;;;5.29;78.70;101827.47;6200024;28;20248;-78
2020/12/08 04:45:49;;;;;;;15.47;8.23;;;;;;;5.22;78.51;101832.66;6217091;28;20247;-78
2020/12/08 04:48:52;;;;;;;12.43;8.13;;;;;;;5.23;78.05;101817.28;6201307;28;20240;-77
2020/12/08 04:51:55;;;;;;;14.97;7.93;;;;;;;5.24;77.84;101841.47;6216653;28;20196;-78
2020/12/08 04:55:01;;;;;;;14.40;7.93;;;;;;;5.19;78.20;101840.25;6218868;28;20272;-77
2020/12/08 04:58:09;;;;;;;15.83;8.50;;;;;;;5.02;78.00;101826.59;6201710;28;20590;-78
2020/12/08 05:01:24;;;;;;;15.27;8.37;;;;;;;5.30;77.29;101838.13;6217550;28;20623;-78
2020/12/08 05:04:28;;;;;;;16.83;7.57;;;;;;;5.00;78.17;101850.25;6218022;28;20254;-76
2020/12/08 05:07:30;;;;;;;12.67;7.53;;;;;;;5.20;77.40;101852.75;6217867;28;20206;-78
2020/12/08 05:10:35;;;;;;;19.30;7.77;;;;;;;5.11;77.03;101851.00;6218194;28;20196;-79
2020/12/08 05:13:39;;;;;;;17.10;7.97;;;;;;;5.17;76.90;101850.38;6199544;28;20287;-77
2020/12/08 05:16:43;;;;;;;14.27;8.20;;;;;;;5.08;76.57;101850.28;6206985;28;20336;-77
2020/12/08 05:19:46;;;;;;;12.00;7.43;;;;;;;5.10;77.22;101854.72;6214683;28;20209;-79
2020/12/08 05:22:53;;;;;;;13.37;8.33;;;;;;;5.01;77.52;101862.75;6212214;28;20266;-80
2020/12/08 05:26:06;;;;;;;15.00;8.33;;;;;;;5.03;77.64;101860.75;6220195;28;20234;-79
2020/12/08 05:29:20;;;;;;;11.20;7.17;;;;;;;4.98;76.70;101868.47;6219892;28;20188;-77
2020/12/08 05:32:29;;;;;;;11.20;6.67;;;;;;;4.70;77.00;101831.72;6221296;28;20198;-79
2020/12/08 05:35:35;;;;;;;13.87;7.80;;;;;;;5.06;76.15;101860.44;6223333;28;20196;-77
2020/12/08 05:38:39;;;;;;;14.10;7.63;;;;;;;5.13;76.03;101862.53;6222890;28;20311;-76
2020/12/08 05:41:45;;;;;;;12.87;7.03;;;;;;;4.93;75.91;101865.38;6222002;28;20330;-78
2020/12/08 05:44:51;;;;;;;9.83;7.27;;;;;;;4.81;76.16;101855.81;6222780;28;20198;-82
2020/12/08 05:47:57;;;;;;;8.27;7.00;;;;;;;4.95;76.57;101863.41;6204119;28;20218;-78
2020/12/08 05:51:02;;;;;;;12.27;7.50;;;;;;;4.97;76.38;101872.19;6203516;28;20202;-77
2020/12/08 05:54:06;;;;;;;19.97;9.00;;;;;;;5.05;75.66;101874.13;6221511;28;20700;-78
2020/12/08 05:57:15;;;;;;;13.00;7.30;;;;;;;5.06;75.89;101865.84;6221531;28;20623;-77
2020/12/08 06:00:23;;;;;;;10.23;7.43;;;;;;;5.07;76.12;101875.66;6214823;28;20385;-79
2020/12/08 06:03:36;;;;;;;15.37;7.90;;;;;;;4.92;76.72;101876.38;6210056;28;20666;-77
2020/12/08 06:06:46;;;;;;;9.00;7.00;;;;;;;4.97;76.43;101872.19;6214398;28;20286;-77
2020/12/08 06:09:49;;;;;;;12.40;7.50;;;;;;;5.07;75.54;101872.09;6217006;28;20209;-79
2020/12/08 06:13:00;;;;;;;12.27;7.53;;;;;;;4.82;76.30;101860.25;6219726;28;20191;-78
2020/12/08 06:16:16;;;;;;;13.40;6.97;;;;;;;5.03;74.88;101887.78;6200311;28;20194;-77
2020/12/08 06:19:20;;;;;;;10.27;7.07;;;;;;;5.13;74.77;101879.59;6215532;28;20223;-78
2020/12/08 06:22:23;;;;;;;11.57;6.70;;;;;;;4.92;74.74;101888.03;6214413;28;20308;-78
2020/12/08 06:25:27;;;;;;;16.73;7.23;;;;;;;4.75;75.45;101878.06;6220225;28;20260;-78
2020/12/08 06:28:31;;;;;;;12.37;7.40;;;;;;;4.77;75.86;101892.31;6206962;28;20649;-78
2020/12/08 06:31:43;;;;;;;12.03;6.70;;;;;;;4.99;75.00;101891.81;6218806;28;20200;-78
2020/12/08 06:34:46;;;;;;;11.70;7.00;;;;;;;4.92;74.60;101896.16;6220128;28;20195;-77
2020/12/08 06:37:51;;;;;;;13.77;6.87;;;;;;;4.81;74.09;101865.78;6218391;28;20473;-77
2020/12/08 06:40:55;;;;;;;8.40;5.70;;;;;;;5.05;73.53;101896.63;6200804;28;20256;-77
2020/12/08 06:43:59;;;;;;;11.40;6.73;;;;;;;5.11;73.84;101897.81;6220193;28;20669;-76
2020/12/08 06:47:08;;;;;;;13.07;7.13;;;;;;;5.00;73.30;101890.81;6217366;28;20190;-77
2020/12/08 06:50:26;;;;;;;11.00;7.03;;;;;;;4.93;74.44;101897.00;6214503;28;20362;-78
2020/12/08 06:53:29;;;;;;;8.53;6.87;;;;;;;4.94;74.43;101877.91;6221989;28;20201;-77
2020/12/08 06:56:33;;;;;;;14.97;6.70;;;;;;;4.75;74.93;101882.63;6225255;28;20589;-79
2020/12/08 06:59:36;;;;;;;12.93;6.90;;;;;;;4.82;74.22;101892.69;6244830;28;20290;-80
2020/12/08 07:02:48;;;;;;;9.43;6.40;;;;;;;4.88;73.59;101894.75;6221117;28;20208;-76
2020/12/08 07:05:52;;;;;;;10.97;6.53;;;;;;;4.98;73.82;101894.69;6226190;28;20633;-80
2020/12/08 07:08:57;;;;;;;12.17;7.20;;;;;;;4.92;73.60;101896.16;6238852;28;20289;-78
2020/12/08 07:12:01;;;;;;;11.87;6.20;;;;;;;5.01;73.93;101897.06;6219773;28;20212;-78
2020/12/08 07:15:04;;;;;;;9.87;6.43;;;;;;;4.77;74.87;101897.72;6202196;28;20200;-78
2020/12/08 07:18:16;;;;;;;10.80;6.63;;;;;;;4.79;74.55;101906.50;6215845;28;20203;-78
2020/12/08 07:21:20;;;;;;;11.07;6.33;;;;;;;4.82;72.88;101894.53;6209952;28;20686;-79
2020/12/08 07:24:43;;;;;;;13.17;7.10;;;;;;;4.84;73.49;101898.78;6204418;28;20211;-79
2020/12/08 07:27:48;;;;;;;11.43;6.60;;;;;;;4.77;73.53;101908.53;6209199;28;20315;-76
2020/12/08 07:30:52;;;;;;;13.97;6.30;;;;;;;4.64;74.17;101913.44;6218281;28;20197;-81
2020/12/08 07:33:58;;;;;;;10.67;6.23;;;;;;;4.75;72.89;101894.28;6212612;28;20226;-78
2020/12/08 07:37:02;;;;;;;9.30;6.23;;;;;;;5.01;72.58;101910.59;6205415;28;20246;-78
2020/12/08 07:40:08;;;;;;;13.83;6.67;;;;;;;4.85;73.33;101916.69;6212122;28;20505;-78
2020/12/08 07:43:17;;;;;;;9.37;6.07;;;;;;;5.00;72.03;101920.59;6216996;28;20212;-78
2020/12/08 07:46:26;;;;;;;10.17;6.33;;;;;;;4.88;71.72;101905.56;6213657;28;20232;-79
2020/12/08 07:49:39;;;;;;;12.07;6.53;;;;;;;5.03;72.28;101919.41;6213844;28;20228;-78
2020/12/08 07:52:54;;;;;;;11.03;6.50;;;;;;;4.65;71.93;101877.28;6218432;28;20219;-77
2020/12/08 07:55:57;;;;;;;8.33;5.73;;;;;;;4.71;72.41;101914.53;6221499;28;20777;-80
2020/12/08 07:59:01;;;;;;;13.47;6.27;;;;;;;4.57;73.23;101915.03;6206414;28;20313;-79
2020/12/08 08:02:05;;;;;;;6.57;5.63;;;;;;;4.87;71.33;101930.94;6221722;28;20236;-80
2020/12/08 08:05:12;;;;;;;11.33;5.97;;;;;;;4.82;71.47;101933.25;6220377;28;20272;-80
2020/12/08 08:08:22;;;;;;;9.60;5.10;;;;;;;4.70;71.72;101939.84;6220856;28;20681;-79
2020/12/08 08:11:26;;;;;;;8.07;5.47;;;;;;;4.59;72.09;101926.56;6209978;28;20205;-80
2020/12/08 08:14:29;;;;;;;7.73;6.17;;;;;;;4.36;71.43;101892.84;6210760;28;20199;-79
2020/12/08 08:17:42;;;;;;;7.87;6.10;;;;;;;4.80;71.42;101939.81;6212686;28;20272;-78
2020/12/08 08:20:49;;;;;;;6.47;5.40;;;;;;;4.52;71.43;101925.44;6217073;28;20225;-79
2020/12/08 08:23:52;;;;;;;9.27;5.43;;;;;;;4.64;71.81;101956.69;6217365;28;20318;-79
2020/12/08 08:26:56;;;;;;;8.13;5.60;;;;;;;4.68;71.56;101936.47;6221632;28;20242;-79
2020/12/08 08:30:00;;;;;;;9.27;5.63;;;;;;;4.63;72.29;101954.13;6218294;28;20206;-79
2020/12/08 08:33:06;;;;;;;7.93;5.70;;;;;;;4.63;70.58;101948.72;6199551;28;20293;-79
2020/12/08 08:36:14;;;;;;;7.83;5.30;;;;;;;4.64;70.42;101951.28;6217325;28;20232;-79
2020/12/08 08:39:20;;;;;;;12.10;5.43;;;;;;;4.49;70.86;101908.72;6217745;28;20215;-79
2020/12/08 08:42:24;;;;;;;7.63;5.10;;;;;;;4.53;71.70;101954.19;6207930;28;20620;-77
2020/12/08 08:45:27;;;;;;;6.63;5.63;;;;;;;4.56;71.19;101948.50;6222900;28;20656;-79
2020/12/08 08:48:32;;;;;;;8.30;5.70;;;;;;;4.29;70.85;101886.34;6221044;28;20221;-79
2020/12/08 08:51:36;;;;;;;10.03;5.37;;;;;;;4.63;71.43;101949.56;6207463;28;20210;-79
2020/12/08 08:54:39;;;;;;;6.30;5.43;;;;;;;4.72;70.49;101955.94;6217259;28;20200;-81
2020/12/08 08:57:42;;;;;;;6.63;5.67;;;;;;;4.65;71.09;101952.97;6220984;28;20574;-79
2020/12/08 09:00:46;;;;;;;13.80;5.40;;;;;;;4.49;71.61;101969.03;6216460;28;20233;-79
2020/12/08 09:03:51;;;;;;;11.47;5.83;;;;;;;4.36;71.96;101953.16;6221958;28;20210;-79
2020/12/08 09:06:55;;;;;;;5.37;4.93;;;;;;;4.42;72.52;101962.50;6220461;28;20288;-78
2020/12/08 09:09:59;;;;;;;10.93;5.73;;;;;;;4.31;72.90;101960.84;6221756;28;20263;-79
2020/12/08 09:13:05;;;;;;;6.27;5.10;;;;;;;4.44;72.80;101955.94;6222879;28;20201;-79
2020/12/08 09:16:09;;;;;;;9.77;5.77;;;;;;;4.34;73.34;101959.69;6209241;28;20258;-78
2020/12/08 09:19:13;;;;;;;10.70;6.23;;;;;;;4.46;72.11;101969.31;6221143;28;20254;-79
2020/12/08 09:22:18;;;;;;;9.10;5.10;;;;;;;4.31;73.57;101965.41;6209702;28;20285;-78
2020/12/08 09:25:22;;;;;;;8.93;5.00;;;;;;;4.25;73.26;101944.38;6214803;28;20207;-79
2020/12/08 09:28:26;;;;;;;6.00;5.40;;;;;;;4.40;73.06;101949.16;6184704;28;20677;-79
2020/12/08 09:31:30;;;;;;;7.30;5.47;;;;;;;4.27;73.14;101947.78;6179626;28;20207;-78
2020/12/08 09:34:33;;;;;;;5.57;5.17;;;;;;;4.22;73.88;101966.28;6193806;28;20203;-79
2020/12/08 09:37:38;;;;;;;8.97;5.87;;;;;;;4.29;74.22;101960.13;6196057;28;20562;-78
2020/12/08 09:40:42;;;;;;;8.30;5.40;;;;;;;4.44;73.77;101963.22;6192543;28;20228;-78
2020/12/08 09:43:46;;;;;;;8.27;5.17;;;;;;;4.27;73.94;101964.00;6193098;28;20192;-78
2020/12/08 09:46:49;;;;;;;12.33;5.60;;;;;;;3.88;74.76;101919.25;6189804;28;20200;-79
2020/12/08 09:49:53;;;;;;;8.50;5.50;;;;;;;4.19;75.29;101955.78;6192964;28;20295;-78
2020/12/08 09:52:57;;;;;;;10.33;5.47;;;;;;;4.21;75.36;101959.22;6207174;28;20205;-79
2020/12/08 09:56:01;;;;;;;6.50;5.50;;;;;;;4.28;74.93;101954.91;6195119;28;20206;-79
2020/12/08 09:59:06;;;;;;;8.73;6.23;;;;;;;4.34;74.89;101948.88;6211553;28;20439;-78
2020/12/08 10:02:10;;;;;;;10.87;5.63;;;;;;;4.04;73.96;101887.03;6194705;28;20615;-78
2020/12/08 10:05:16;;;;;;;13.40;5.73;;;;;;;4.45;74.18;101959.50;6193925;28;20243;-79
2020/12/08 10:08:25;;;;;;;6.60;5.23;;;;;;;4.34;74.72;101959.69;6197357;28;20198;-79
2020/12/08 10:11:28;;;;;;;10.83;5.83;;;;;;;4.11;75.53;101961.91;6196123;28;20222;-79
2020/12/08 10:14:32;;;;;;;6.80;5.50;;;;;;;4.25;74.25;101963.28;6190568;28;20200;-79
2020/12/08 10:17:35;;;;;;;7.03;5.27;;;;;;;4.19;74.70;101966.56;6200609;28;20195;-80
2020/12/08 10:20:39;;;;;;;5.97;4.97;;;;;;;4.23;73.47;101962.59;6191252;28;20227;-77
2020/12/08 10:23:43;;;;;;;11.93;5.43;;;;;;;4.25;73.63;101961.44;6186213;28;20211;-78
2020/12/08 10:26:47;;;;;;;9.57;5.20;;;;;;;4.06;73.26;101972.31;6205103;28;20237;-80
2020/12/08 10:29:50;;;;;;;9.80;4.90;;;;;;;4.03;73.79;101966.38;6222195;28;20259;-77
2020/12/08 10:32:55;;;;;;;8.20;5.70;;;;;;;4.20;71.64;101973.69;6217627;28;20193;-78
2020/12/08 10:35:58;;;;;;;5.17;4.77;;;;;;;4.33;71.41;101979.63;6217850;28;20211;-79
2020/12/08 10:39:05;;;;;;;5.37;4.90;;;;;;;4.22;71.88;101977.09;6220221;28;20311;-78
2020/12/08 10:42:16;;;;;;;6.53;4.53;;;;;;;4.23;70.32;101984.22;6219118;28;20224;-78
2020/12/08 10:45:19;;;;;;;6.70;4.30;;;;;;;3.85;70.19;101958.19;6220158;28;20239;-80
2020/12/08 10:48:27;;;;;;;6.43;4.23;;;;;;;3.99;68.99;101959.56;6219054;28;20584;-79
2020/12/08 10:51:30;;;;;;;5.30;4.20;;;;;;;4.03;69.10;101969.91;6221571;28;20213;-79
2020/12/08 10:54:36;;;;;;;4.57;4.17;;;;;;;3.98;69.78;101974.06;6221150;28;20204;-79
2020/12/08 10:57:40;;;;;;;4.93;4.53;;;;;;;3.92;68.47;101959.31;6222062;28;20348;-78
2020/12/08 11:00:43;;;;;;;5.37;4.13;;;;;;;4.05;68.54;101970.63;6221697;28;20232;-79
2020/12/08 11:03:50;;;;;;;8.57;4.70;;;;;;;3.98;68.49;101974.06;6220966;28;20339;-78
2020/12/08 11:06:55;;;;;;;15.87;4.30;;;;;;;3.97;68.10;101945.34;6217170;28;20673;-78
2020/12/08 11:10:00;;;;;;;7.07;4.13;;;;;;;3.88;68.37;101962.44;6217409;28;20704;-79
2020/12/08 11:13:06;;;;;;;6.23;4.47;;;;;;;3.92;69.15;101963.84;6212484;28;20226;-80
2020/12/08 11:16:10;;;;;;;6.97;4.53;;;;;;;4.05;68.17;101964.38;6201069;28;20328;-79
2020/12/08 11:19:14;;;;;;;6.53;5.03;;;;;;;4.01;68.49;101974.59;6203756;28;20274;-78
2020/12/08 11:22:19;;;;;;;11.90;4.67;;;;;;;3.98;68.30;101966.78;6219508;28;20213;-79
2020/12/08 11:25:23;;;;;;;4.80;4.30;;;;;;;3.99;68.47;101973.91;6199209;28;20345;-80
2020/12/08 11:28:26;;;;;;;4.47;4.07;;;;;;;3.89;68.39;101969.53;6195610;28;20389;-78
2020/12/08 11:31:30;;;;;;;4.80;4.40;;;;;;;3.79;67.67;101954.22;6214483;28;20246;-81
2020/12/08 11:34:33;;;;;;;7.77;4.40;;;;;;;3.62;68.63;101930.66;6219303;28;20201;-78
2020/12/08 11:37:36;;;;;;;7.17;4.40;;;;;;;3.69;69.75;101972.28;6199337;28;20208;-78
2020/12/08 11:40:52;;;;;;;4.57;4.27;;;;;;;3.80;69.20;101969.41;6207832;28;20242;-78
2020/12/08 11:43:55;;;;;;;7.83;4.63;;;;;;;3.80;68.62;101950.50;6217586;28;20276;-78
2020/12/08 11:46:59;;;;;;;13.70;5.00;;;;;;;3.92;69.19;101959.31;6212225;28;20583;-79
2020/12/08 11:50:02;;;;;;;4.90;4.40;;;;;;;3.97;69.07;101972.34;6199757;28;20295;-79
2020/12/08 11:53:14;;;;;;;5.57;4.37;;;;;;;3.05;69.44;101828.28;6218548;28;20728;-82
2020/12/08 11:56:18;;;;;;;11.43;4.60;;;;;;;3.83;69.80;101956.63;6216050;28;20198;-78
2020/12/08 11:59:21;;;;;;;5.73;4.30;;;;;;;3.75;69.11;101965.44;6206945;28;20246;-78
2020/12/08 12:02:25;;;;;;;5.97;4.57;;;;;;;3.94;69.91;101988.84;6211692;28;20220;-78
2020/12/08 12:05:28;;;;;;;5.50;4.97;;;;;;;3.86;69.27;101977.91;6217003;28;20202;-77
2020/12/08 12:08:31;;;;;;;7.30;4.70;;;;;;;3.78;69.62;101968.72;6213409;28;20206;-78
2020/12/08 12:11:36;;;;;;;7.53;4.70;;;;;;;3.48;69.25;101931.13;6198914;28;20276;-78
2020/12/08 12:14:39;;;;;;;9.47;4.80;;;;;;;3.68;69.96;101959.78;6217012;28;20322;-79
2020/12/08 12:17:43;;;;;;;6.33;4.43;;;;;;;3.59;69.90;101984.09;6216286;28;20233;-79
2020/12/08 12:20:46;;;;;;;4.90;4.50;;;;;;;3.60;70.47;101977.69;6216711;28;20216;-78
2020/12/08 12:23:50;;;;;;;5.27;4.50;;;;;;;3.48;70.41;101955.41;6215959;28;20205;-77
2020/12/08 12:26:58;;;;;;;7.33;4.87;;;;;;;3.72;70.16;101990.88;6195643;28;20225;-77
2020/12/08 12:30:02;;;;;;;9.80;4.73;;;;;;;3.54;70.49;101970.19;6217223;28;20666;-78
2020/12/08 12:33:10;;;;;;;6.33;4.60;;;;;;;3.68;70.40;101978.69;6212847;28;20392;-78
2020/12/08 12:36:15;;;;;;;5.37;4.87;;;;;;;3.77;70.00;101983.19;6217364;28;20193;-78
2020/12/08 12:39:19;;;;;;;6.17;4.63;;;;;;;3.80;69.94;101973.94;6212400;28;20196;-76
2020/12/08 12:42:23;;;;;;;7.57;5.03;;;;;;;3.88;69.99;101975.94;6218837;28;20350;-79
2020/12/08 12:45:26;;;;;;;6.63;4.97;;;;;;;3.64;70.88;101976.41;6214557;28;20885;-79
2020/12/08 12:48:30;;;;;;;5.83;5.00;;;;;;;3.70;69.94;101976.69;6219691;28;20252;-79
2020/12/08 12:51:33;;;;;;;7.23;5.30;;;;;;;3.71;70.16;101978.41;6222244;28;20254;-80
2020/12/08 12:54:37;;;;;;;7.33;5.10;;;;;;;3.57;70.73;101984.22;6220623;28;20692;-78
2020/12/08 12:57:41;;;;;;;6.00;5.00;;;;;;;3.66;70.55;101986.06;6220616;28;20302;-79
2020/12/08 13:00:44;;;;;;;4.43;4.03;;;;;;;3.46;70.81;101984.41;6217034;28;20290;-79
2020/12/08 13:04:05;;;;;;;8.27;4.73;;;;;;;3.55;69.93;101988.91;6198432;28;20661;-77
2020/12/08 13:07:09;;;;;;;5.30;4.90;;;;;;;3.76;69.27;101978.81;6214265;28;20224;-78
2020/12/08 13:10:13;;;;;;;9.10;4.70;;;;;;;3.64;69.68;101979.97;6217400;28;20292;-79
2020/12/08 13:13:18;;;;;;;7.90;5.03;;;;;;;3.51;69.65;101982.13;6201848;28;20213;-77
2020/12/08 13:16:21;;;;;;;5.03;4.53;;;;;;;3.46;70.26;101978.16;6210165;28;20206;-78
2020/12/08 13:19:24;;;;;;;5.77;5.13;;;;;;;3.45;70.56;101985.38;6217239;28;20209;-79
2020/12/08 13:22:43;;;;;;;9.80;5.47;;;;;;;3.42;70.55;101982.97;6197221;28;20283;-78
2020/12/08 13:25:46;;;;;;;7.50;5.07;;;;;;;3.40;71.35;101989.50;6218534;28;20210;-79
2020/12/08 13:28:51;;;;;;;5.33;4.83;;;;;;;3.51;70.49;101963.22;6218951;28;20684;-78
2020/12/08 13:31:54;;;;;;;10.37;5.00;;;;;;;3.56;69.76;101974.44;6218161;28;20463;-78
2020/12/08 13:34:58;;;;;;;5.87;4.63;;;;;;;3.48;69.11;101982.41;6195677;28;20222;-78
2020/12/08 13:38:04;;;;;;;11.27;5.00;;;;;;;3.56;69.13;101984.38;6213517;28;20237;-78
2020/12/08 13:41:07;;;;;;;5.53;4.80;;;;;;;3.32;68.92;101976.72;6202722;28;20214;-78
2020/12/08 13:44:14;;;;;;;5.43;5.00;;;;;;;3.45;70.50;101992.63;6217084;28;20212;-77
2020/12/08 13:47:17;;;;;;;6.37;5.77;;;;;;;3.45;69.26;101966.50;6218928;28;20194;-77
2020/12/08 13:50:21;;;;;;;9.17;5.40;;;;;;;3.39;69.79;101950.88;6214169;28;20494;-77
2020/12/08 13:53:24;;;;;;;8.17;5.67;;;;;;;3.67;69.59;101987.75;6215273;28;20247;-77
2020/12/08 13:56:28;;;;;;;6.43;4.90;;;;;;;3.40;70.12;101962.53;6216303;28;20211;-78
2020/12/08 13:59:32;;;;;;;7.77;5.63;;;;;;;3.21;71.32;101984.94;6217696;28;20212;-78
2020/12/08 14:02:36;;;;;;;7.57;5.03;;;;;;;3.50;69.62;102006.53;6210345;28;20212;-77
2020/12/08 14:05:41;;;;;;;5.63;5.07;;;;;;;3.37;68.81;101996.03;6213830;28;20224;-78
2020/12/08 14:08:44;;;;;;;6.77;5.10;;;;;;;3.46;68.86;101995.19;6220460;28;20272;-79
2020/12/08 14:11:47;;;;;;;6.20;5.27;;;;;;;3.58;69.15;102003.97;6223027;28;20294;-79
2020/12/08 14:14:52;;;;;;;5.60;4.90;;;;;;;3.26;70.84;101998.91;6208660;28;20697;-77
2020/12/08 14:18:12;;;;;;;6.67;5.23;;;;;;;3.46;69.46;101997.88;6211010;28;20560;-78
2020/12/08 14:21:15;;;;;;;6.53;5.30;;;;;;;3.29;69.94;101993.19;6214300;28;20212;-78
2020/12/08 14:24:22;;;;;;;9.07;4.93;;;;;;;3.34;68.85;102001.69;6210566;28;20661;-78
2020/12/08 14:27:26;;;;;;;12.73;5.60;;;;;;;3.22;69.13;101978.56;6216747;28;20337;-78